<?xml version='1.0' encoding='UTF-8'?><gpx version="1.1" creator="JPX - https://github.com/jenetics/jpx" xmlns="http://www.topografix.com/GPX/1/1"><trk><trkseg><trkpt lat="40.317204591532054" lon="15.718939260361452"><ele>1301.0</ele><time>2026-04-12T10:17:02Z</time></trkpt><trkpt lat="40.31712969713303" lon="15.718990800482816"><ele>1301.0</ele><time>2026-04-12T10:17:04Z</time></trkpt><trkpt lat="40.31706473357375" lon="15.71902273628513"><ele>1301.0</ele><time>2026-04-12T10:17:09Z</time></trkpt><trkpt lat="40.31698531054544" lon="15.719035573595347"><ele>1301.0</ele><time>2026-04-12T10:17:13Z</time></trkpt><trkpt lat="40.316924797882464" lon="15.719080410063272"><ele>1301.0</ele><time>2026-04-12T10:17:16Z</time></trkpt><trkpt lat="40.3168454167242" lon="15.719082022732886"><ele>1301.0</ele><time>2026-04-12T10:17:19Z</time></trkpt><trkpt lat="40.31678091897872" lon="15.719066715024193"><ele>1301.0</ele><time>2026-04-12T10:17:21Z</time></trkpt><trkpt lat="40.316717665560205" lon="15.719064986450084"><ele>1301.0</ele><time>2026-04-12T10:17:23Z</time></trkpt><trkpt lat="40.316620006545904" lon="15.719057589223445"><ele>1301.0</ele><time>2026-04-12T10:17:25Z</time></trkpt><trkpt lat="40.31652825248558" lon="15.71903914387037"><ele>1301.0</ele><time>2026-04-12T10:17:27Z</time></trkpt><trkpt lat="40.31644930836761" lon="15.71900160292518"><ele>1301.0</ele><time>2026-04-12T10:17:29Z</time></trkpt><trkpt lat="40.31635823710758" lon="15.718955286534365"><ele>1301.0</ele><time>2026-04-12T10:17:31Z</time></trkpt><trkpt lat="40.31628864611874" lon="15.718860249244026"><ele>1301.3333333333335</ele><time>2026-04-12T10:17:33Z</time></trkpt><trkpt lat="40.316222899531994" lon="15.718819426291434"><ele>1301.6666666666667</ele><time>2026-04-12T10:17:34Z</time></trkpt><trkpt lat="40.316165716159084" lon="15.718773053256642"><ele>1302.0</ele><time>2026-04-12T10:17:35Z</time></trkpt><trkpt lat="40.31606843161983" lon="15.718695349829153"><ele>1302.3333333333333</ele><time>2026-04-12T10:17:37Z</time></trkpt><trkpt lat="40.3160029660883" lon="15.718630634499917"><ele>1302.6666666666665</ele><time>2026-04-12T10:17:38Z</time></trkpt><trkpt lat="40.31594949623877" lon="15.71855236263616"><ele>1303.0</ele><time>2026-04-12T10:17:39Z</time></trkpt><trkpt lat="40.31588690431178" lon="15.718511986446103"><ele>1303.1666666666665</ele><time>2026-04-12T10:17:40Z</time></trkpt><trkpt lat="40.31580799638868" lon="15.718474499162532"><ele>1303.3333333333333</ele><time>2026-04-12T10:17:41Z</time></trkpt><trkpt lat="40.31571962700386" lon="15.71843996567951"><ele>1303.5</ele><time>2026-04-12T10:17:41.999Z</time></trkpt><trkpt lat="40.31563831002419" lon="15.71841592199591"><ele>1303.6666666666667</ele><time>2026-04-12T10:17:42.999Z</time></trkpt><trkpt lat="40.315570862936696" lon="15.71840388255147"><ele>1303.8333333333335</ele><time>2026-04-12T10:17:43.999Z</time></trkpt><trkpt lat="40.315501505556696" lon="15.718419160227592"><ele>1304.0</ele><time>2026-04-12T10:17:44.999Z</time></trkpt><trkpt lat="40.315392775220715" lon="15.718444080478289"><ele>1304.0</ele><time>2026-04-12T10:17:46.999Z</time></trkpt><trkpt lat="40.31532591306142" lon="15.71847197078824"><ele>1304.0</ele><time>2026-04-12T10:17:47.999Z</time></trkpt><trkpt lat="40.315227190526635" lon="15.718509284502048"><ele>1304.0</ele><time>2026-04-12T10:17:48.999Z</time></trkpt><trkpt lat="40.315135364743085" lon="15.718554754576806"><ele>1304.0</ele><time>2026-04-12T10:17:49.999Z</time></trkpt><trkpt lat="40.315048921484724" lon="15.718585086015104"><ele>1304.0</ele><time>2026-04-12T10:17:50.999Z</time></trkpt><trkpt lat="40.314981680097894" lon="15.718588462197761"><ele>1304.0</ele><time>2026-04-12T10:17:51.999Z</time></trkpt><trkpt lat="40.314858862869286" lon="15.718642239148735"><ele>1303.6</ele><time>2026-04-12T10:17:53.999Z</time></trkpt><trkpt lat="40.3147831028903" lon="15.718693539760055"><ele>1303.2</ele><time>2026-04-12T10:17:54.999Z</time></trkpt><trkpt lat="40.31472232598446" lon="15.718732576463623"><ele>1302.8</ele><time>2026-04-12T10:17:55.999Z</time></trkpt><trkpt lat="40.31462866240686" lon="15.718807274219959"><ele>1302.3999999999999</ele><time>2026-04-12T10:17:57.999Z</time></trkpt><trkpt lat="40.314527126430534" lon="15.718927367800429"><ele>1302.0</ele><time>2026-04-12T10:17:59.999Z</time></trkpt><trkpt lat="40.31446525797582" lon="15.718999616256117"><ele>1300.6</ele><time>2026-04-12T10:18:00.999Z</time></trkpt><trkpt lat="40.3143960898451" lon="15.719073665175605"><ele>1299.1999999999998</ele><time>2026-04-12T10:18:01.999Z</time></trkpt><trkpt lat="40.31429413027082" lon="15.719183088662936"><ele>1297.8</ele><time>2026-04-12T10:18:03.999Z</time></trkpt><trkpt lat="40.31424295323762" lon="15.719244199169909"><ele>1296.4</ele><time>2026-04-12T10:18:04.999Z</time></trkpt><trkpt lat="40.31415569071197" lon="15.719321836067035"><ele>1295.0</ele><time>2026-04-12T10:18:06.999Z</time></trkpt><trkpt lat="40.31407060499141" lon="15.719372277117076"><ele>1295.0</ele><time>2026-04-12T10:18:09Z</time></trkpt><trkpt lat="40.313961931514534" lon="15.719389585080721"><ele>1295.0</ele><time>2026-04-12T10:18:11Z</time></trkpt><trkpt lat="40.313883715558994" lon="15.719433577089283"><ele>1295.0</ele><time>2026-04-12T10:18:13Z</time></trkpt><trkpt lat="40.31381867585062" lon="15.719499592047473"><ele>1295.0</ele><time>2026-04-12T10:18:15Z</time></trkpt><trkpt lat="40.31375346879118" lon="15.719576912914297"><ele>1295.0</ele><time>2026-04-12T10:18:17Z</time></trkpt><trkpt lat="40.313668674783315" lon="15.71964964588138"><ele>1291.2</ele><time>2026-04-12T10:18:19Z</time></trkpt><trkpt lat="40.31360498074041" lon="15.719687985094533"><ele>1287.4</ele><time>2026-04-12T10:18:21Z</time></trkpt><trkpt lat="40.31351913168607" lon="15.71973065283018"><ele>1283.6</ele><time>2026-04-12T10:18:23Z</time></trkpt><trkpt lat="40.31343766992156" lon="15.719801068236771"><ele>1279.8</ele><time>2026-04-12T10:18:25Z</time></trkpt><trkpt lat="40.313333098551325" lon="15.719900310337694"><ele>1276.0</ele><time>2026-04-12T10:18:27Z</time></trkpt><trkpt lat="40.3132749187124" lon="15.719962043901445"><ele>1276.0</ele><time>2026-04-12T10:18:28Z</time></trkpt><trkpt lat="40.313214733209016" lon="15.72002292295468"><ele>1276.0</ele><time>2026-04-12T10:18:29Z</time></trkpt><trkpt lat="40.31313852478988" lon="15.720140657319284"><ele>1276.0</ele><time>2026-04-12T10:18:31Z</time></trkpt><trkpt lat="40.3130848337682" lon="15.720241361507947"><ele>1276.0</ele><time>2026-04-12T10:18:33Z</time></trkpt><trkpt lat="40.313066092074564" lon="15.720332071295264"><ele>1276.0</ele><time>2026-04-12T10:18:35Z</time></trkpt><trkpt lat="40.313070165402735" lon="15.720433543017357"><ele>1276.0</ele><time>2026-04-12T10:18:37Z</time></trkpt><trkpt lat="40.31302903236217" lon="15.720514709785007"><ele>1272.8</ele><time>2026-04-12T10:18:39Z</time></trkpt><trkpt lat="40.31297859033489" lon="15.72064177737028"><ele>1269.6</ele><time>2026-04-12T10:18:41Z</time></trkpt><trkpt lat="40.312950426261224" lon="15.720743647664985"><ele>1266.4</ele><time>2026-04-12T10:18:43Z</time></trkpt><trkpt lat="40.312883048158184" lon="15.720824485092024"><ele>1263.2</ele><time>2026-04-12T10:18:45Z</time></trkpt><trkpt lat="40.31279757286837" lon="15.720931615670834"><ele>1260.0</ele><time>2026-04-12T10:18:47Z</time></trkpt><trkpt lat="40.31273772273752" lon="15.721053154441593"><ele>1257.6666666666667</ele><time>2026-04-12T10:18:49Z</time></trkpt><trkpt lat="40.31269282941832" lon="15.721122627798573"><ele>1255.3333333333333</ele><time>2026-04-12T10:18:50Z</time></trkpt><trkpt lat="40.31260491546242" lon="15.721218481688396"><ele>1253.0</ele><time>2026-04-12T10:18:52Z</time></trkpt><trkpt lat="40.31250530265109" lon="15.721311780418892"><ele>1250.6666666666665</ele><time>2026-04-12T10:18:54Z</time></trkpt><trkpt lat="40.3124516711051" lon="15.721368069683292"><ele>1248.3333333333333</ele><time>2026-04-12T10:18:55Z</time></trkpt><trkpt lat="40.31239423709865" lon="15.72142663639365"><ele>1246.0</ele><time>2026-04-12T10:18:56Z</time></trkpt><trkpt lat="40.31233579348419" lon="15.721468567812117"><ele>1246.0</ele><time>2026-04-12T10:18:57Z</time></trkpt><trkpt lat="40.3122777740822" lon="15.721510688637304"><ele>1246.0</ele><time>2026-04-12T10:18:58Z</time></trkpt><trkpt lat="40.31218605707222" lon="15.721576055059963"><ele>1246.0</ele><time>2026-04-12T10:19:00Z</time></trkpt><trkpt lat="40.31211459318711" lon="15.721640760326226"><ele>1246.0</ele><time>2026-04-12T10:19:02Z</time></trkpt><trkpt lat="40.3120586425856" lon="15.721721531142713"><ele>1246.0</ele><time>2026-04-12T10:19:05Z</time></trkpt><trkpt lat="40.311996729084264" lon="15.721783237362242"><ele>1246.0</ele><time>2026-04-12T10:19:07Z</time></trkpt><trkpt lat="40.31191586062412" lon="15.721860587360549"><ele>1242.3333333333333</ele><time>2026-04-12T10:19:09Z</time></trkpt><trkpt lat="40.31185706136781" lon="15.72190591324971"><ele>1238.6666666666665</ele><time>2026-04-12T10:19:10Z</time></trkpt><trkpt lat="40.31179265572627" lon="15.721963755339369"><ele>1235.0</ele><time>2026-04-12T10:19:11Z</time></trkpt><trkpt lat="40.31172385963021" lon="15.722033796009343"><ele>1231.3333333333333</ele><time>2026-04-12T10:19:12Z</time></trkpt><trkpt lat="40.311653473341444" lon="15.722099771627644"><ele>1227.6666666666667</ele><time>2026-04-12T10:19:13Z</time></trkpt><trkpt lat="40.31158805999763" lon="15.722152603104279"><ele>1224.0</ele><time>2026-04-12T10:19:14Z</time></trkpt><trkpt lat="40.31152740832606" lon="15.722193991270974"><ele>1224.0</ele><time>2026-04-12T10:19:15Z</time></trkpt><trkpt lat="40.31144951663468" lon="15.722247616208906"><ele>1224.0</ele><time>2026-04-12T10:19:16Z</time></trkpt><trkpt lat="40.311359876993286" lon="15.722292997386758"><ele>1224.0</ele><time>2026-04-12T10:19:17Z</time></trkpt><trkpt lat="40.31127584032989" lon="15.72233787026458"><ele>1224.0</ele><time>2026-04-12T10:19:18Z</time></trkpt><trkpt lat="40.311208509212065" lon="15.722374082510239"><ele>1224.0</ele><time>2026-04-12T10:19:19Z</time></trkpt><trkpt lat="40.311106018737085" lon="15.722464671052496"><ele>1224.2</ele><time>2026-04-12T10:19:21Z</time></trkpt><trkpt lat="40.311010039247684" lon="15.72254106031616"><ele>1224.4</ele><time>2026-04-12T10:19:23Z</time></trkpt><trkpt lat="40.310901952019535" lon="15.722615583659428"><ele>1224.6</ele><time>2026-04-12T10:19:25Z</time></trkpt><trkpt lat="40.31082425909845" lon="15.722672317075078"><ele>1224.8</ele><time>2026-04-12T10:19:27Z</time></trkpt><trkpt lat="40.31073553717919" lon="15.722732647567236"><ele>1225.0</ele><time>2026-04-12T10:19:29Z</time></trkpt><trkpt lat="40.3106595548127" lon="15.722818360774092"><ele>1225.1666666666665</ele><time>2026-04-12T10:19:31Z</time></trkpt><trkpt lat="40.31062461286433" lon="15.722893700161068"><ele>1225.3333333333333</ele><time>2026-04-12T10:19:34Z</time></trkpt><trkpt lat="40.31059299928512" lon="15.723030773913116"><ele>1225.5</ele><time>2026-04-12T10:21:16Z</time></trkpt><trkpt lat="40.31059194634187" lon="15.723131889076658"><ele>1225.6666666666667</ele><time>2026-04-12T10:21:17Z</time></trkpt><trkpt lat="40.310594975851664" lon="15.723224045658931"><ele>1225.8333333333335</ele><time>2026-04-12T10:21:18Z</time></trkpt><trkpt lat="40.31058047574499" lon="15.723326014532633"><ele>1226.0</ele><time>2026-04-12T10:21:20Z</time></trkpt><trkpt lat="40.310519357398725" lon="15.723436622913784"><ele>1226.8333333333335</ele><time>2026-04-12T10:21:22Z</time></trkpt><trkpt lat="40.310476499866986" lon="15.72356354358667"><ele>1227.6666666666667</ele><time>2026-04-12T10:21:24Z</time></trkpt><trkpt lat="40.31044508235985" lon="15.723656926081514"><ele>1228.5</ele><time>2026-04-12T10:21:26Z</time></trkpt><trkpt lat="40.31036617434226" lon="15.723788179944753"><ele>1229.3333333333333</ele><time>2026-04-12T10:21:28Z</time></trkpt><trkpt lat="40.310320546058016" lon="15.72385728115359"><ele>1230.1666666666665</ele><time>2026-04-12T10:21:29Z</time></trkpt><trkpt lat="40.31026910202902" lon="15.723909860800834"><ele>1231.0</ele><time>2026-04-12T10:21:30Z</time></trkpt><trkpt lat="40.3101944534534" lon="15.723981030832652"><ele>1231.0</ele><time>2026-04-12T10:21:32Z</time></trkpt><trkpt lat="40.310107789327134" lon="15.724070836185275"><ele>1231.0</ele><time>2026-04-12T10:21:35Z</time></trkpt><trkpt lat="40.31004326655806" lon="15.72414162731345"><ele>1231.0</ele><time>2026-04-12T10:21:36Z</time></trkpt><trkpt lat="40.30996912410326" lon="15.724200387630544"><ele>1231.0</ele><time>2026-04-12T10:21:37Z</time></trkpt><trkpt lat="40.309893684733524" lon="15.72424978026869"><ele>1231.0</ele><time>2026-04-12T10:21:38Z</time></trkpt><trkpt lat="40.309816300893424" lon="15.724315287339909"><ele>1233.3999999999999</ele><time>2026-04-12T10:21:39Z</time></trkpt><trkpt lat="40.309731634360276" lon="15.724380169164055"><ele>1235.8</ele><time>2026-04-12T10:21:40Z</time></trkpt><trkpt lat="40.3096470181538" lon="15.724441570755612"><ele>1238.1999999999998</ele><time>2026-04-12T10:21:41Z</time></trkpt><trkpt lat="40.309556533491865" lon="15.724513340091029"><ele>1240.6</ele><time>2026-04-12T10:21:42Z</time></trkpt><trkpt lat="40.30947293711425" lon="15.724597445759489"><ele>1243.0</ele><time>2026-04-12T10:21:43Z</time></trkpt><trkpt lat="40.309414632809364" lon="15.724663018714347"><ele>1243.0</ele><time>2026-04-12T10:21:44Z</time></trkpt><trkpt lat="40.309367738152766" lon="15.72472793889095"><ele>1243.0</ele><time>2026-04-12T10:21:45Z</time></trkpt><trkpt lat="40.30927499166814" lon="15.724756302350993"><ele>1243.0</ele><time>2026-04-12T10:21:47Z</time></trkpt><trkpt lat="40.309222878540034" lon="15.724825175125163"><ele>1243.0</ele><time>2026-04-12T10:21:48Z</time></trkpt><trkpt lat="40.309156933780905" lon="15.724917437329161"><ele>1243.0</ele><time>2026-04-12T10:21:49Z</time></trkpt><trkpt lat="40.3091027543858" lon="15.724990760555755"><ele>1243.0</ele><time>2026-04-12T10:21:50Z</time></trkpt><trkpt lat="40.30904527134599" lon="15.725047839920602"><ele>1243.0</ele><time>2026-04-12T10:21:51Z</time></trkpt><trkpt lat="40.30897693722954" lon="15.725096367552316"><ele>1243.0</ele><time>2026-04-12T10:21:52Z</time></trkpt><trkpt lat="40.30889530622338" lon="15.72515276216873"><ele>1243.0</ele><time>2026-04-12T10:21:53Z</time></trkpt><trkpt lat="40.30881408724061" lon="15.725215248401145"><ele>1243.0</ele><time>2026-04-12T10:21:54Z</time></trkpt><trkpt lat="40.308726046424745" lon="15.725282968727823"><ele>1243.0</ele><time>2026-04-12T10:21:55Z</time></trkpt><trkpt lat="40.30862384272578" lon="15.725354005393145"><ele>1244.4</ele><time>2026-04-12T10:21:55.999Z</time></trkpt><trkpt lat="40.30853222541952" lon="15.725417541782809"><ele>1245.8</ele><time>2026-04-12T10:21:56.999Z</time></trkpt><trkpt lat="40.30845940358277" lon="15.725473571403851"><ele>1247.2</ele><time>2026-04-12T10:21:57.999Z</time></trkpt><trkpt lat="40.3083870546627" lon="15.725521377633076"><ele>1248.6</ele><time>2026-04-12T10:21:58.999Z</time></trkpt><trkpt lat="40.3082982647107" lon="15.725583122945169"><ele>1250.0</ele><time>2026-04-12T10:21:59.999Z</time></trkpt><trkpt lat="40.30820546441405" lon="15.725645728842599"><ele>1250.0</ele><time>2026-04-12T10:22:00.999Z</time></trkpt><trkpt lat="40.3080990103596" lon="15.725696854267815"><ele>1250.0</ele><time>2026-04-12T10:22:01.999Z</time></trkpt><trkpt lat="40.30799911857272" lon="15.725736313726559"><ele>1250.0</ele><time>2026-04-12T10:22:02.999Z</time></trkpt><trkpt lat="40.30790279256764" lon="15.725783958192865"><ele>1250.0</ele><time>2026-04-12T10:22:03.999Z</time></trkpt><trkpt lat="40.30782549847471" lon="15.725856173466052"><ele>1250.0</ele><time>2026-04-12T10:22:04.999Z</time></trkpt><trkpt lat="40.307736183668496" lon="15.725901164379998"><ele>1250.3333333333335</ele><time>2026-04-12T10:22:05.999Z</time></trkpt><trkpt lat="40.30765050286288" lon="15.725952855917658"><ele>1250.6666666666667</ele><time>2026-04-12T10:22:06.999Z</time></trkpt><trkpt lat="40.30758102109718" lon="15.726007798764385"><ele>1251.0</ele><time>2026-04-12T10:22:07.999Z</time></trkpt><trkpt lat="40.307521633074586" lon="15.726069405277345"><ele>1251.3333333333333</ele><time>2026-04-12T10:22:08.999Z</time></trkpt><trkpt lat="40.307470942843835" lon="15.726127295657177"><ele>1251.6666666666665</ele><time>2026-04-12T10:22:09.999Z</time></trkpt><trkpt lat="40.307420782305336" lon="15.726204423616943"><ele>1252.0</ele><time>2026-04-12T10:22:10.999Z</time></trkpt><trkpt lat="40.3073727827874" lon="15.726285081169868"><ele>1252.5</ele><time>2026-04-12T10:22:11.999Z</time></trkpt><trkpt lat="40.30732794913175" lon="15.726386828177736"><ele>1253.0</ele><time>2026-04-12T10:22:13.999Z</time></trkpt><trkpt lat="40.3072625429862" lon="15.726430366196091"><ele>1253.5</ele><time>2026-04-12T10:22:15.999Z</time></trkpt><trkpt lat="40.3071792370298" lon="15.726500981452498"><ele>1254.0</ele><time>2026-04-12T10:22:19.999Z</time></trkpt><trkpt lat="40.30711627160751" lon="15.726539406390517"><ele>1254.5</ele><time>2026-04-12T10:22:21Z</time></trkpt><trkpt lat="40.307059389668375" lon="15.726603781258524"><ele>1255.0</ele><time>2026-04-12T10:22:23Z</time></trkpt><trkpt lat="40.30700871905905" lon="15.726697042569723"><ele>1259.5</ele><time>2026-04-12T10:22:26Z</time></trkpt><trkpt lat="40.306699126617275" lon="15.72705350257817"><ele>1264.0</ele><time>2026-04-12T10:22:30Z</time></trkpt><trkpt lat="40.30664013019243" lon="15.727106246986667"><ele>1264.0</ele><time>2026-04-12T10:22:31Z</time></trkpt><trkpt lat="40.306574023035324" lon="15.727204059281558"><ele>1264.0</ele><time>2026-04-12T10:22:33Z</time></trkpt><trkpt lat="40.306541817853244" lon="15.727286483226747"><ele>1264.0</ele><time>2026-04-12T10:22:34Z</time></trkpt><trkpt lat="40.30650546058784" lon="15.727377169688214"><ele>1264.0</ele><time>2026-04-12T10:22:35Z</time></trkpt><trkpt lat="40.30645869011678" lon="15.727451851519147"><ele>1264.0</ele><time>2026-04-12T10:22:36Z</time></trkpt><trkpt lat="40.306411656287324" lon="15.727510335313523"><ele>1264.0</ele><time>2026-04-12T10:22:37Z</time></trkpt><trkpt lat="40.306355190087245" lon="15.727561862783872"><ele>1263.8</ele><time>2026-04-12T10:22:38Z</time></trkpt><trkpt lat="40.306297528144725" lon="15.727623426195183"><ele>1263.6000000000001</ele><time>2026-04-12T10:22:39Z</time></trkpt><trkpt lat="40.30624108422778" lon="15.727673859280861"><ele>1263.4</ele><time>2026-04-12T10:22:40Z</time></trkpt><trkpt lat="40.306150316793726" lon="15.727776990989828"><ele>1263.2</ele><time>2026-04-12T10:22:42Z</time></trkpt><trkpt lat="40.306080732606205" lon="15.727883952550414"><ele>1263.0</ele><time>2026-04-12T10:22:44Z</time></trkpt><trkpt lat="40.306034261405706" lon="15.727982425321773"><ele>1263.0</ele><time>2026-04-12T10:22:46Z</time></trkpt><trkpt lat="40.305973294243955" lon="15.728060060489732"><ele>1263.0</ele><time>2026-04-12T10:22:47Z</time></trkpt><trkpt lat="40.30594407704466" lon="15.728137998815846"><ele>1263.0</ele><time>2026-04-12T10:22:48Z</time></trkpt><trkpt lat="40.30590702496232" lon="15.728235490258516"><ele>1263.0</ele><time>2026-04-12T10:22:50Z</time></trkpt><trkpt lat="40.30586010602444" lon="15.728321454738616"><ele>1263.0</ele><time>2026-04-12T10:22:52Z</time></trkpt><trkpt lat="40.305813239074084" lon="15.72841148475719"><ele>1263.0</ele><time>2026-04-12T10:22:55Z</time></trkpt><trkpt lat="40.305759570965556" lon="15.728503435354602"><ele>1262.9999999999998</ele><time>2026-04-12T10:22:57Z</time></trkpt><trkpt lat="40.30570362732626" lon="15.728542629119943"><ele>1263.0</ele><time>2026-04-12T10:22:58Z</time></trkpt><trkpt lat="40.305658835189305" lon="15.728607471887338"><ele>1263.0</ele><time>2026-04-12T10:23:00Z</time></trkpt><trkpt lat="40.30562603364228" lon="15.728694068165488"><ele>1263.0</ele><time>2026-04-12T10:23:03Z</time></trkpt><trkpt lat="40.30561923999908" lon="15.728793571537915"><ele>1263.0</ele><time>2026-04-12T10:23:06Z</time></trkpt><trkpt lat="40.30565724904399" lon="15.728860919724195"><ele>1262.9999999999998</ele><time>2026-04-12T10:23:08Z</time></trkpt><trkpt lat="40.30570413107052" lon="15.728929742180066"><ele>1263.0</ele><time>2026-04-12T10:23:13Z</time></trkpt><trkpt lat="40.30577098979758" lon="15.728967882696578"><ele>1258.2</ele><time>2026-04-12T10:23:15Z</time></trkpt><trkpt lat="40.30585884274722" lon="15.729036555404113"><ele>1253.4</ele><time>2026-04-12T10:23:18Z</time></trkpt><trkpt lat="40.30592516771598" lon="15.729062367580351"><ele>1248.6000000000001</ele><time>2026-04-12T10:23:20Z</time></trkpt><trkpt lat="40.306028988136795" lon="15.729119074884808"><ele>1243.8</ele><time>2026-04-12T10:23:22Z</time></trkpt><trkpt lat="40.30611263891575" lon="15.729152101821223"><ele>1239.0</ele><time>2026-04-12T10:23:24Z</time></trkpt><trkpt lat="40.30621787795439" lon="15.72919857257056"><ele>1239.0</ele><time>2026-04-12T10:23:26Z</time></trkpt><trkpt lat="40.3062896952797" lon="15.729261735820971"><ele>1239.0</ele><time>2026-04-12T10:23:28Z</time></trkpt><trkpt lat="40.306350719791794" lon="15.729291797413"><ele>1239.0</ele><time>2026-04-12T10:23:29Z</time></trkpt><trkpt lat="40.30641385208662" lon="15.729333765989676"><ele>1239.0</ele><time>2026-04-12T10:23:30Z</time></trkpt><trkpt lat="40.30647335412919" lon="15.72937247651058"><ele>1239.0</ele><time>2026-04-12T10:23:31Z</time></trkpt><trkpt lat="40.306589010629395" lon="15.729452523021614"><ele>1239.0</ele><time>2026-04-12T10:23:33Z</time></trkpt><trkpt lat="40.30665052473613" lon="15.729512657120653"><ele>1233.6000000000001</ele><time>2026-04-12T10:23:34Z</time></trkpt><trkpt lat="40.3067654945515" lon="15.729594160994683"><ele>1228.2</ele><time>2026-04-12T10:23:36Z</time></trkpt><trkpt lat="40.30682449249181" lon="15.729643413048345"><ele>1222.8000000000002</ele><time>2026-04-12T10:23:37Z</time></trkpt><trkpt lat="40.30690474797649" lon="15.729721715008086"><ele>1217.4</ele><time>2026-04-12T10:23:39Z</time></trkpt><trkpt lat="40.30700321967358" lon="15.729821202274358"><ele>1212.0</ele><time>2026-04-12T10:23:41Z</time></trkpt><trkpt lat="40.30706923876383" lon="15.729918974737878"><ele>1212.0</ele><time>2026-04-12T10:23:43Z</time></trkpt><trkpt lat="40.307128897952715" lon="15.729994791885497"><ele>1212.0</ele><time>2026-04-12T10:23:45Z</time></trkpt><trkpt lat="40.30717974921426" lon="15.730081011713596"><ele>1212.0</ele><time>2026-04-12T10:23:47Z</time></trkpt><trkpt lat="40.30726304196996" lon="15.730171093575525"><ele>1212.0</ele><time>2026-04-12T10:23:49Z</time></trkpt><trkpt lat="40.307342272892384" lon="15.73023493637022"><ele>1212.0</ele><time>2026-04-12T10:23:51Z</time></trkpt><trkpt lat="40.30740067019185" lon="15.730270304155818"><ele>1212.0</ele><time>2026-04-12T10:23:52Z</time></trkpt><trkpt lat="40.3075213734301" lon="15.730316808404096"><ele>1208.0</ele><time>2026-04-12T10:23:54Z</time></trkpt><trkpt lat="40.30760334208847" lon="15.730356444639584"><ele>1204.0</ele><time>2026-04-12T10:23:56Z</time></trkpt><trkpt lat="40.307703281186406" lon="15.73040022356018"><ele>1200.0</ele><time>2026-04-12T10:23:58Z</time></trkpt><trkpt lat="40.307783741508835" lon="15.730479166560041"><ele>1196.0</ele><time>2026-04-12T10:24:00Z</time></trkpt><trkpt lat="40.30786543340402" lon="15.730566066241677"><ele>1192.0</ele><time>2026-04-12T10:24:01.999Z</time></trkpt><trkpt lat="40.3079303398088" lon="15.730672816276194"><ele>1192.0</ele><time>2026-04-12T10:24:03.999Z</time></trkpt><trkpt lat="40.308003865657525" lon="15.730754842099197"><ele>1192.0</ele><time>2026-04-12T10:24:05.999Z</time></trkpt><trkpt lat="40.308087805846206" lon="15.730796412537499"><ele>1192.0</ele><time>2026-04-12T10:24:07.999Z</time></trkpt><trkpt lat="40.30816158547558" lon="15.730807361833877"><ele>1192.0</ele><time>2026-04-12T10:24:09.999Z</time></trkpt><trkpt lat="40.308253760625554" lon="15.730846331091328"><ele>1192.0</ele><time>2026-04-12T10:24:11.999Z</time></trkpt><trkpt lat="40.30832769329505" lon="15.730940066393204"><ele>1188.8</ele><time>2026-04-12T10:24:13.999Z</time></trkpt><trkpt lat="40.308392759036906" lon="15.731061274174683"><ele>1185.6</ele><time>2026-04-12T10:24:15.999Z</time></trkpt><trkpt lat="40.30842973643176" lon="15.731132614335477"><ele>1182.3999999999999</ele><time>2026-04-12T10:24:16.999Z</time></trkpt><trkpt lat="40.308482077863495" lon="15.731224059626596"><ele>1179.2</ele><time>2026-04-12T10:24:18.999Z</time></trkpt><trkpt lat="40.308542613436536" lon="15.731344469699339"><ele>1176.0</ele><time>2026-04-12T10:24:20.999Z</time></trkpt><trkpt lat="40.3085847422715" lon="15.73146728530412"><ele>1176.0</ele><time>2026-04-12T10:24:22.999Z</time></trkpt><trkpt lat="40.30861411320769" lon="15.731547153524254"><ele>1176.0</ele><time>2026-04-12T10:24:23.999Z</time></trkpt><trkpt lat="40.30863886470196" lon="15.731637508250095"><ele>1176.0</ele><time>2026-04-12T10:24:24.999Z</time></trkpt><trkpt lat="40.308666334834605" lon="15.731717391727107"><ele>1176.0</ele><time>2026-04-12T10:24:25.999Z</time></trkpt><trkpt lat="40.308674181471346" lon="15.731833754880984"><ele>1176.0</ele><time>2026-04-12T10:24:29Z</time></trkpt><trkpt lat="40.30857568110758" lon="15.731864396031176"><ele>1176.0</ele><time>2026-04-12T10:24:32Z</time></trkpt><trkpt lat="40.3084915648264" lon="15.731767529774686"><ele>1176.0</ele><time>2026-04-12T10:24:34Z</time></trkpt><trkpt lat="40.3084025372094" lon="15.731703532060624"><ele>1176.0</ele><time>2026-04-12T10:24:36Z</time></trkpt><trkpt lat="40.30831011878102" lon="15.731679304742562"><ele>1176.0</ele><time>2026-04-12T10:24:38Z</time></trkpt><trkpt lat="40.30821853437833" lon="15.731653009015591"><ele>1176.0</ele><time>2026-04-12T10:24:40Z</time></trkpt><trkpt lat="40.308101040530886" lon="15.731629557388574"><ele>1176.0</ele><time>2026-04-12T10:24:43Z</time></trkpt><trkpt lat="40.308014973020526" lon="15.731528706116478"><ele>1173.1666666666667</ele><time>2026-04-12T10:24:44Z</time></trkpt><trkpt lat="40.30795183214122" lon="15.73148873753499"><ele>1170.3333333333333</ele><time>2026-04-12T10:24:45Z</time></trkpt><trkpt lat="40.3078931082159" lon="15.731456769185161"><ele>1167.5</ele><time>2026-04-12T10:24:46Z</time></trkpt><trkpt lat="40.3077868508671" lon="15.731433356394444"><ele>1164.6666666666665</ele><time>2026-04-12T10:24:48Z</time></trkpt><trkpt lat="40.30768942135707" lon="15.731389832165295"><ele>1161.8333333333333</ele><time>2026-04-12T10:24:50Z</time></trkpt><trkpt lat="40.30761664156863" lon="15.731366729422092"><ele>1159.0</ele><time>2026-04-12T10:24:52Z</time></trkpt><trkpt lat="40.30753389742846" lon="15.731339480911476"><ele>1159.0</ele><time>2026-04-12T10:24:54Z</time></trkpt><trkpt lat="40.30743816645458" lon="15.73131488229429"><ele>1159.0</ele><time>2026-04-12T10:24:56Z</time></trkpt><trkpt lat="40.307364222690715" lon="15.731291061146434"><ele>1159.0</ele><time>2026-04-12T10:24:58Z</time></trkpt><trkpt lat="40.3072844434492" lon="15.73125222692028"><ele>1159.0</ele><time>2026-04-12T10:25:00Z</time></trkpt><trkpt lat="40.30718834751167" lon="15.731202086978417"><ele>1159.0</ele><time>2026-04-12T10:25:02Z</time></trkpt><trkpt lat="40.307080391247844" lon="15.731196696785021"><ele>1157.5</ele><time>2026-04-12T10:25:04Z</time></trkpt><trkpt lat="40.30699324839656" lon="15.731184712172277"><ele>1156.0</ele><time>2026-04-12T10:25:06Z</time></trkpt><trkpt lat="40.30689837771464" lon="15.73118432468313"><ele>1154.5</ele><time>2026-04-12T10:25:08Z</time></trkpt><trkpt lat="40.306831095824165" lon="15.731176745813011"><ele>1153.0</ele><time>2026-04-12T10:25:09Z</time></trkpt><trkpt lat="40.306742053137896" lon="15.73114968474583"><ele>1151.5</ele><time>2026-04-12T10:25:11Z</time></trkpt><trkpt lat="40.30663947193204" lon="15.731153886852832"><ele>1150.0</ele><time>2026-04-12T10:25:13Z</time></trkpt><trkpt lat="40.306545364477245" lon="15.731181990139465"><ele>1150.0</ele><time>2026-04-12T10:25:15Z</time></trkpt><trkpt lat="40.306479104817235" lon="15.731173902741793"><ele>1150.0</ele><time>2026-04-12T10:25:16Z</time></trkpt><trkpt lat="40.30638533475538" lon="15.731252313276856"><ele>1150.0</ele><time>2026-04-12T10:25:18Z</time></trkpt><trkpt lat="40.30627443808108" lon="15.731296909818841"><ele>1150.0</ele><time>2026-04-12T10:25:20Z</time></trkpt><trkpt lat="40.3062089121988" lon="15.731312608556122"><ele>1150.0</ele><time>2026-04-12T10:25:21Z</time></trkpt><trkpt lat="40.30614420600631" lon="15.731311694508227"><ele>1150.0</ele><time>2026-04-12T10:25:22Z</time></trkpt><trkpt lat="40.30607964690278" lon="15.731319037279613"><ele>1149.1666666666665</ele><time>2026-04-12T10:25:24Z</time></trkpt><trkpt lat="40.30604667594208" lon="15.731400429855444"><ele>1148.3333333333333</ele><time>2026-04-12T10:25:28Z</time></trkpt><trkpt lat="40.30611367655358" lon="15.73146906120964"><ele>1147.5</ele><time>2026-04-12T10:25:31Z</time></trkpt><trkpt lat="40.30612947782488" lon="15.731559747606177"><ele>1146.6666666666667</ele><time>2026-04-12T10:25:35Z</time></trkpt><trkpt lat="40.306175832314786" lon="15.731648404968139"><ele>1145.8333333333335</ele><time>2026-04-12T10:25:39Z</time></trkpt><trkpt lat="40.306245276743674" lon="15.731707716421104"><ele>1145.0</ele><time>2026-04-12T10:25:42Z</time></trkpt><trkpt lat="40.30633241231898" lon="15.731754784435255"><ele>1145.8333333333335</ele><time>2026-04-12T10:25:45Z</time></trkpt><trkpt lat="40.30641838452776" lon="15.731784818271985"><ele>1146.6666666666667</ele><time>2026-04-12T10:25:47Z</time></trkpt><trkpt lat="40.30648387976746" lon="15.731832389335318"><ele>1147.5</ele><time>2026-04-12T10:25:50Z</time></trkpt><trkpt lat="40.30657145980987" lon="15.731862746938644"><ele>1148.3333333333333</ele><time>2026-04-12T10:25:53Z</time></trkpt><trkpt lat="40.30663700102034" lon="15.731914971065867"><ele>1149.1666666666665</ele><time>2026-04-12T10:25:56Z</time></trkpt><trkpt lat="40.3067373613386" lon="15.731948468865463"><ele>1150.0</ele><time>2026-04-12T10:25:59Z</time></trkpt><trkpt lat="40.30680634230512" lon="15.731991696385961"><ele>1149.5</ele><time>2026-04-12T10:26:01Z</time></trkpt><trkpt lat="40.306859962397546" lon="15.73204324989726"><ele>1149.0</ele><time>2026-04-12T10:26:03.999Z</time></trkpt><trkpt lat="40.30693387106349" lon="15.732058180755207"><ele>1148.5</ele><time>2026-04-12T10:26:07.999Z</time></trkpt><trkpt lat="40.30699248052048" lon="15.73211150522878"><ele>1148.0</ele><time>2026-04-12T10:26:10.999Z</time></trkpt><trkpt lat="40.30707351735884" lon="15.732111699610583"><ele>1147.5</ele><time>2026-04-12T10:26:12.999Z</time></trkpt><trkpt lat="40.307150509988055" lon="15.73213290612324"><ele>1147.0</ele><time>2026-04-12T10:26:15.999Z</time></trkpt><trkpt lat="40.307248505565056" lon="15.732174849483597"><ele>1147.0</ele><time>2026-04-12T10:26:17.999Z</time></trkpt><trkpt lat="40.307312367620504" lon="15.732222481012377"><ele>1147.0</ele><time>2026-04-12T10:26:19.999Z</time></trkpt><trkpt lat="40.307368193199174" lon="15.732280584222464"><ele>1147.0</ele><time>2026-04-12T10:26:27.999Z</time></trkpt><trkpt lat="40.307422011362725" lon="15.732326667691522"><ele>1147.0</ele><time>2026-04-12T10:26:30.999Z</time></trkpt><trkpt lat="40.30751867672582" lon="15.732405324457812"><ele>1147.0</ele><time>2026-04-12T10:26:33Z</time></trkpt><trkpt lat="40.307576756059696" lon="15.732462259924427"><ele>1147.0</ele><time>2026-04-12T10:26:34Z</time></trkpt><trkpt lat="40.307638803196774" lon="15.732532203484606"><ele>1147.0</ele><time>2026-04-12T10:26:36Z</time></trkpt><trkpt lat="40.3077147037338" lon="15.73262659498807"><ele>1147.0</ele><time>2026-04-12T10:26:38Z</time></trkpt><trkpt lat="40.30776861236115" lon="15.732745876040452"><ele>1147.0</ele><time>2026-04-12T10:26:40Z</time></trkpt><trkpt lat="40.30780676438187" lon="15.732835542025898"><ele>1147.0</ele><time>2026-04-12T10:29:48Z</time></trkpt><trkpt lat="40.307836556998815" lon="15.732950970573208"><ele>1147.0</ele><time>2026-04-12T10:29:51Z</time></trkpt><trkpt lat="40.30786439263098" lon="15.733025488950183"><ele>1147.0</ele><time>2026-04-12T10:29:53Z</time></trkpt><trkpt lat="40.30791116353129" lon="15.733116322263985"><ele>1147.5</ele><time>2026-04-12T10:29:56Z</time></trkpt><trkpt lat="40.30793697927495" lon="15.733219685560767"><ele>1148.0</ele><time>2026-04-12T10:29:59Z</time></trkpt><trkpt lat="40.30796726258661" lon="15.73331799878237"><ele>1148.5</ele><time>2026-04-12T10:30:04Z</time></trkpt><trkpt lat="40.308023836298474" lon="15.7333931868965"><ele>1149.0</ele><time>2026-04-12T10:30:08Z</time></trkpt><trkpt lat="40.308079183491174" lon="15.733446386308184"><ele>1149.5</ele><time>2026-04-12T10:30:14.999Z</time></trkpt><trkpt lat="40.30802173978509" lon="15.7334030630225"><ele>1150.0</ele><time>2026-04-12T10:33:47Z</time></trkpt><trkpt lat="40.30797422845459" lon="15.733330666057181"><ele>1150.0</ele><time>2026-04-12T10:33:50Z</time></trkpt><trkpt lat="40.30794156357589" lon="15.733254071652421"><ele>1150.0</ele><time>2026-04-12T10:33:59Z</time></trkpt><trkpt lat="40.30792079444809" lon="15.733168144472886"><ele>1150.0</ele><time>2026-04-12T10:34:02Z</time></trkpt><trkpt lat="40.30787944966491" lon="15.733077855079717"><ele>1150.0</ele><time>2026-04-12T10:34:04Z</time></trkpt><trkpt lat="40.30786600771794" lon="15.732987529697674"><ele>1150.0</ele><time>2026-04-12T10:34:08Z</time></trkpt><trkpt lat="40.30788042628638" lon="15.732906814289287"><ele>1150.0</ele><time>2026-04-12T10:34:12Z</time></trkpt><trkpt lat="40.30784969440598" lon="15.732832134276986"><ele>1150.0</ele><time>2026-04-12T10:34:18Z</time></trkpt><trkpt lat="40.307914379985434" lon="15.732869653893806"><ele>1150.0</ele><time>2026-04-12T10:34:35.999Z</time></trkpt><trkpt lat="40.30797735230268" lon="15.7328485542075"><ele>1150.0</ele><time>2026-04-12T10:34:36.999Z</time></trkpt><trkpt lat="40.30807872741939" lon="15.732811137731321"><ele>1150.0</ele><time>2026-04-12T10:34:38.999Z</time></trkpt><trkpt lat="40.30815065698733" lon="15.732846639415019"><ele>1150.0</ele><time>2026-04-12T10:34:40.999Z</time></trkpt><trkpt lat="40.3081520784015" lon="15.73293462593511"><ele>1150.0</ele><time>2026-04-12T10:35:19Z</time></trkpt><trkpt lat="40.30817980065271" lon="15.733033570634705"><ele>1150.0</ele><time>2026-04-12T10:35:24Z</time></trkpt><trkpt lat="40.30819175350204" lon="15.73313328770078"><ele>1153.4285714285713</ele><time>2026-04-12T10:35:30Z</time></trkpt><trkpt lat="40.30819600699038" lon="15.733220678358293"><ele>1156.8571428571427</ele><time>2026-04-12T10:35:34Z</time></trkpt><trkpt lat="40.30821631219583" lon="15.733354688191008"><ele>1160.2857142857142</ele><time>2026-04-12T10:36:37.999Z</time></trkpt><trkpt lat="40.30818483293373" lon="15.733431082151672"><ele>1163.7142857142858</ele><time>2026-04-12T10:37:24Z</time></trkpt><trkpt lat="40.30818939607219" lon="15.73352840834032"><ele>1167.1428571428573</ele><time>2026-04-12T10:40:20Z</time></trkpt><trkpt lat="40.30823518111633" lon="15.733585365256014"><ele>1170.5714285714287</ele><time>2026-04-12T10:40:24Z</time></trkpt><trkpt lat="40.30819285799996" lon="15.733522226632825"><ele>1174.0</ele><time>2026-04-12T10:45:19.999Z</time></trkpt><trkpt lat="40.30819633034441" lon="15.73343199164926"><ele>1174.0</ele><time>2026-04-12T10:46:08Z</time></trkpt><trkpt lat="40.30818862234046" lon="15.733342225332853"><ele>1174.0</ele><time>2026-04-12T10:46:28Z</time></trkpt><trkpt lat="40.30818412076402" lon="15.733248602476962"><ele>1174.0</ele><time>2026-04-12T10:46:33Z</time></trkpt><trkpt lat="40.308190319890045" lon="15.73315111696487"><ele>1174.0</ele><time>2026-04-12T10:46:37Z</time></trkpt><trkpt lat="40.308183008925525" lon="15.733035592765088"><ele>1174.0</ele><time>2026-04-12T10:46:44Z</time></trkpt><trkpt lat="40.30815862667475" lon="15.732954446145115"><ele>1174.0</ele><time>2026-04-12T10:46:47.999Z</time></trkpt><trkpt lat="40.308112606488436" lon="15.732897230944506"><ele>1174.0</ele><time>2026-04-12T10:46:55.999Z</time></trkpt><trkpt lat="40.308037530106354" lon="15.732888544460883"><ele>1170.0</ele><time>2026-04-12T10:46:58.999Z</time></trkpt><trkpt lat="40.30796488780598" lon="15.732851449623475"><ele>1166.0</ele><time>2026-04-12T10:47:02.999Z</time></trkpt><trkpt lat="40.30791420119519" lon="15.732792414472664"><ele>1162.0</ele><time>2026-04-12T10:47:05.999Z</time></trkpt><trkpt lat="40.30787143248773" lon="15.73266010542828"><ele>1158.0</ele><time>2026-04-12T10:51:35.999Z</time></trkpt><trkpt lat="40.30783785077311" lon="15.732575254398528"><ele>1154.0</ele><time>2026-04-12T10:51:36.999Z</time></trkpt><trkpt lat="40.3078055812813" lon="15.732495317201522"><ele>1150.0</ele><time>2026-04-12T10:51:37.999Z</time></trkpt><trkpt lat="40.30776782308982" lon="15.73241736434966"><ele>1149.4</ele><time>2026-04-12T10:51:38.999Z</time></trkpt><trkpt lat="40.30772649907957" lon="15.732323718315318"><ele>1148.8</ele><time>2026-04-12T10:51:40.999Z</time></trkpt><trkpt lat="40.30771106571662" lon="15.732231544083826"><ele>1148.2</ele><time>2026-04-12T10:51:44Z</time></trkpt><trkpt lat="40.30772146849792" lon="15.732127847489842"><ele>1147.6</ele><time>2026-04-12T10:51:47Z</time></trkpt><trkpt lat="40.307812556916865" lon="15.732056221695231"><ele>1147.0</ele><time>2026-04-12T10:51:50Z</time></trkpt><trkpt lat="40.30792368402272" lon="15.732050114032916"><ele>1147.0</ele><time>2026-04-12T10:51:52Z</time></trkpt><trkpt lat="40.307999015531166" lon="15.732029070590158"><ele>1147.0</ele><time>2026-04-12T10:51:54Z</time></trkpt><trkpt lat="40.30808360552747" lon="15.731939310805629"><ele>1147.0</ele><time>2026-04-12T10:51:56Z</time></trkpt><trkpt lat="40.30816222492387" lon="15.731835141420033"><ele>1147.0</ele><time>2026-04-12T10:51:58Z</time></trkpt><trkpt lat="40.30821501480989" lon="15.73178200385869"><ele>1147.0</ele><time>2026-04-12T10:52:00Z</time></trkpt><trkpt lat="40.30825009562194" lon="15.731702565676123"><ele>1147.0</ele><time>2026-04-12T10:52:02Z</time></trkpt><trkpt lat="40.30833534880898" lon="15.731677339317413"><ele>1150.2857142857142</ele><time>2026-04-12T10:52:06Z</time></trkpt><trkpt lat="40.30841709167482" lon="15.731724748745737"><ele>1153.5714285714287</ele><time>2026-04-12T10:52:08Z</time></trkpt><trkpt lat="40.30847701165403" lon="15.731768092833175"><ele>1156.857142857143</ele><time>2026-04-12T10:52:09Z</time></trkpt><trkpt lat="40.30853721929666" lon="15.731818119003934"><ele>1160.142857142857</ele><time>2026-04-12T10:52:10Z</time></trkpt><trkpt lat="40.30858756725348" lon="15.731891698302285"><ele>1163.4285714285713</ele><time>2026-04-12T10:52:12Z</time></trkpt><trkpt lat="40.30863830525641" lon="15.731953306019385"><ele>1166.7142857142858</ele><time>2026-04-12T10:52:15Z</time></trkpt><trkpt lat="40.30870335323356" lon="15.731917672107619"><ele>1170.0</ele><time>2026-04-12T10:52:17Z</time></trkpt><trkpt lat="40.30871792760063" lon="15.731831569625475"><ele>1176.0</ele><time>2026-04-12T10:52:19Z</time></trkpt><trkpt lat="40.30867285669837" lon="15.731736007676298"><ele>1176.0</ele><time>2026-04-12T10:52:21Z</time></trkpt><trkpt lat="40.308626130501224" lon="15.731590897349694"><ele>1176.0</ele><time>2026-04-12T10:52:23Z</time></trkpt><trkpt lat="40.30859385535369" lon="15.731442898352647"><ele>1176.0</ele><time>2026-04-12T10:52:25Z</time></trkpt></trkseg></trk></gpx>